Latest Coastal Weather Observations for Eucla

IDW60701

Issued at 5:15 pm WST Thursday 28 August 2014 (issued every 10 minutes, with the page automatically refreshed every 10 minutes)

About coastal observations | Map of coastal stations | Coastal observations for WA | Marine services | Other Formats
Station Details ID: 011003 Name: EUCLA Lat: -31.68 Lon: 128.90 Height: 93.1 m
Data from the previous 72 hours. | See also: Recent months at Eucla
Date/Time
WST
Temp

°C
Wind Pressure Rain
since 9am
mm
Weather Cloud Vis
km
Sea
Height
m
Swell
Dir
 
Speed
knots
Gust
knots
hPa Trend Height
m
Period
s
Dir
28/05:00pm 25.3 NNE 7 10 1019.1 - 0.0 - - - - - - -
28/04:30pm 26.8 NNE 10 15 1018.7 - 0.0 - - - - - - -
28/04:00pm 28.0 NNE 12 18 1018.6 - 0.0 - - - - - - -
28/03:30pm 28.5 NNE 12 18 1018.6 - 0.0 - - - - - - -
28/03:00pm 29.1 N 11 17 1018.5 - 0.0 Fine Mostly clear 40 - - - -
28/02:30pm 29.5 N 9 18 1018.7 - 0.0 - - - - - - -
28/02:00pm 29.7 NNE 13 19 1018.8 - 0.0 - - - - - - -
28/01:30pm 29.7 N 12 20 1019.3 - 0.0 - - - - - - -
28/01:00pm 30.0 N 12 17 1019.6 - 0.0 - - - - - - -
28/12:30pm 29.7 N 11 17 1020.0 - 0.0 - - - - - - -
28/12:00pm 29.0 NNE 12 18 1020.4 - 0.0 - - - - - - -
28/11:30am 29.2 NNE 13 21 1020.8 - 0.0 - - - - - - -
28/11:00am 28.9 NNE 14 19 1021.5 - 0.0 - - - - - - -
28/10:30am 27.9 N 14 22 1022.0 - 0.0 - - - - - - -
28/10:00am 27.3 N 11 18 1022.6 - 0.0 - - - - - - -
28/09:30am 25.8 N 11 18 1022.8 - 0.0 - - - - - - -
28/09:00am 24.0 N 13 20 1023.0 - 0.0 Fine Mostly clear 40 - - - -
28/08:30am 21.2 N 11 16 1023.0 - 0.0 - - - - - - -
28/08:00am 19.4 N 11 15 1023.1 - 0.0 - - - - - - -
28/07:30am 16.6 N 11 16 1022.8 - 0.0 - - - - - - -
28/07:00am 13.7 N 11 15 1023.1 - 0.0 - - - - - - -
28/06:30am 11.4 N 9 13 1022.9 - 0.0 - - - - - - -
28/06:00am 10.7 NNE 10 15 1022.7 - 0.0 - - - - - - -
28/05:30am 11.0 NNE 10 14 1022.4 - 0.0 - - - - - - -
28/05:00am 10.9 NNE 10 13 1022.3 - 0.0 - - - - - - -
28/04:30am 11.2 NNE 9 13 1022.0 - 0.0 - - - - - - -
28/04:00am 11.2 NNE 9 13 1021.9 - 0.0 - - - - - - -
28/03:30am 11.3 NNE 10 14 1021.8 - 0.0 - - - - - - -
28/03:00am 11.7 NNE 9 11 1021.8 - 0.0 - - - - - - -
28/02:30am 11.9 NE 9 11 1021.9 - 0.0 - - - - - - -
28/02:00am 12.1 NE 9 11 1021.9 - 0.0 - - - - - - -
28/01:30am 12.1 NE 8 10 1022.3 - 0.0 - - - - - - -
28/01:00am 12.0 NE 8 9 1022.3 - 0.0 - - - - - - -
28/12:30am 12.9 NE 9 12 1022.5 - 0.0 - - - - - - -
28/12:00am 14.1 NE 10 14 1022.6 - 0.0 - - - - - - -
 
Date/Time
WST
Temp

°C
Wind Pressure Rain
since 9am
mm
Weather Cloud Vis
km
Sea
Height
m
Swell
Dir
 
Speed
knots
Gust
knots
hPa Trend Height
m
Period
s
Dir
27/11:30pm 14.7 ENE 9 13 1022.7 - 0.0 - - - - - - -
27/11:00pm 14.9 ENE 10 15 1023.0 - 0.0 - - - - - - -
27/10:30pm 14.3 ENE 10 14 1023.4 - 0.0 - - - - - - -
27/10:00pm 14.4 ENE 9 14 1023.6 - 0.0 - - - - - - -
27/09:30pm 14.7 ENE 9 14 1023.8 - 0.0 - - - - - - -
27/09:00pm 15.1 E 9 13 1023.8 - 0.0 - - - - - - -
27/08:30pm 15.2 E 8 11 1024.0 - 0.0 - - - - - - -
27/08:00pm 15.0 E 7 10 1024.1 - 0.0 - - - - - - -
27/07:30pm 14.5 E 8 11 1023.9 - 0.0 - - - - - - -
27/07:00pm 14.5 E 7 10 1023.6 - 0.0 - - - - - - -
27/06:30pm 14.1 E 7 9 1023.5 - 0.0 - - - - - - -
27/06:00pm 14.4 E 8 12 1023.2 - 0.0 - - - - - - -
27/05:30pm 14.5 E 8 10 1022.9 - 0.0 - - - - - - -
27/05:00pm 15.1 ESE 8 11 1022.7 - 0.0 - - - - - - -
27/04:30pm 16.3 ESE 8 13 1022.6 - 0.0 - - - - - - -
27/04:00pm 17.0 ESE 8 13 1022.4 - 0.0 - - - - - - -
27/03:30pm 17.8 ESE 9 13 1022.4 - 0.0 - - - - - - -
27/03:00pm 18.6 ESE 9 14 1022.4 - 0.0 Fine Clear 40 - - - -
27/02:30pm 18.9 ESE 9 14 1022.4 - 0.0 - - - - - - -
27/02:00pm 19.7 ESE 8 11 1022.5 - 0.0 - - - - - - -
27/01:30pm 19.7 ESE 9 11 1022.6 - 0.0 - - - - - - -
27/01:00pm 19.6 ESE 10 14 1022.9 - 0.0 - - - - - - -
27/12:30pm 19.8 SE 9 13 1023.1 - 0.0 - - - - - - -
27/12:00pm 19.7 ESE 8 12 1023.4 - 0.0 - - - - - - -
27/11:30am 19.3 SE 8 12 1023.8 - 0.0 - - - - - - -
27/11:00am 19.2 SE 8 11 1024.0 - 0.0 - - - - - - -
27/10:30am 19.7 SE 7 12 1024.5 - 0.0 - - - - - - -
27/10:00am 19.7 SE 7 9 1024.7 - 0.0 - - - - - - -
27/09:30am 18.7 SSE 6 9 1024.9 - 0.0 - - - - - - -
27/09:00am 18.7 SSE 5 7 1024.9 - 0.0 Fine Clear 40 - - - -
27/08:30am 17.9 SSE 5 8 1025.0 - 0.0 - - - - - - -
27/08:00am 16.4 S 5 7 1024.8 - 0.0 - - - - - - -
27/07:30am 15.7 S 4 5 1024.7 - 0.0 - - - - - - -
27/07:00am 14.5 SSE 5 6 1024.5 - 0.0 - - - - - - -
27/06:30am 12.8 SSE 5 6 1023.9 - 0.0 - - - - - - -
27/06:00am 10.4 SSE 5 8 1023.5 - 0.0 - - - - - - -
27/05:30am 11.8 S 5 8 1023.2 - 0.0 - - - - - - -
27/05:00am 11.5 NNE 8 10 1022.4 - 0.0 - - - - - - -
27/04:30am 10.8 N 7 9 1022.1 - 0.0 - - - - - - -
27/04:00am 10.2 N 7 8 1021.8 - 0.0 - - - - - - -
27/03:30am 11.8 N 8 9 1021.6 - 0.0 - - - - - - -
27/03:00am 11.8 NNE 9 11 1021.5 - 0.0 - - - - - - -
27/02:30am 12.4 NNE 8 10 1021.5 - 0.0 - - - - - - -
27/02:00am 12.6 NNE 8 10 1021.7 - 0.0 - - - - - - -
27/01:30am 13.1 NNE 8 11 1021.7 - 0.0 - - - - - - -
27/01:00am 12.5 NNE 8 11 1021.6 - 0.0 - - - - - - -
27/12:30am 12.4 NNE 8 11 1021.7 - 0.0 - - - - - - -
27/12:00am 12.1 NE 9 13 1021.8 - 0.0 - - - - - - -
 
Date/Time
WST
Temp

°C
Wind Pressure Rain
since 9am
mm
Weather Cloud Vis
km
Sea
Height
m
Swell
Dir
 
Speed
knots
Gust
knots
hPa Trend Height
m
Period
s
Dir
26/11:30pm 12.8 NE 9 11 1021.9 - 0.0 - - - - - - -
26/11:00pm 13.3 NE 8 11 1022.1 - 0.0 - - - - - - -
26/10:30pm 13.1 NE 8 11 1022.2 - 0.0 - - - - - - -
26/10:00pm 14.0 NE 7 10 1022.4 - 0.0 - - - - - - -
26/09:30pm 14.4 NE 8 10 1022.6 - 0.0 - - - - - - -
26/09:00pm 14.6 NE 8 11 1022.5 - 0.0 - - - - - - -
26/08:30pm 14.8 ENE 8 10 1022.5 - 0.0 - - - - - - -
26/08:00pm 15.4 ENE 8 13 1022.4 - 0.0 - - - - - - -
26/07:30pm 15.7 ENE 7 9 1022.5 - 0.0 - - - - - - -
26/07:00pm 16.1 ENE 7 9 1022.4 - 0.0 - - - - - - -
26/06:30pm 16.9 ENE 7 9 1022.2 - 0.0 - - - - - - -
26/06:00pm 17.3 E 7 9 1022.1 - 0.0 - - - - - - -
26/05:30pm 18.1 E 7 9 1021.9 - 0.0 - - - - - - -
26/05:00pm 19.3 E 6 8 1021.8 - 0.0 - - - - - - -
26/04:30pm 20.9 E 6 8 1021.5 - 0.0 - - - - - - -
26/04:00pm 21.4 ESE 7 9 1021.6 - 0.0 - - - - - - -
26/03:30pm 21.4 ESE 7 10 1021.3 - 0.0 - - - - - - -
26/03:00pm 21.5 ESE 7 10 1021.2 - 0.0 Fine Mostly cloudy 40 - - - -
26/02:30pm 21.0 SE 7 11 1021.1 - 0.0 - - - - - - -
26/02:00pm 22.6 SE 8 11 1021.3 - 0.0 - - - - - - -
26/01:30pm 21.6 SE 7 10 1021.4 - 0.0 - - - - - - -
26/01:00pm 23.8 SE 8 11 1021.6 - 0.0 - - - - - - -
26/12:30pm 23.9 SSE 8 11 1021.9 - 0.0 - - - - - - -
26/12:00pm 24.4 SSE 7 10 1022.1 - 0.0 - - - - - - -
26/11:30am 26.0 SSE 6 9 1022.3 - 0.0 - - - - - - -
26/11:00am 27.9 N 6 10 1022.7 - 0.0 - - - - - - -
26/10:30am 27.5 NNW 7 11 1023.2 - 0.0 - - - - - - -
26/10:00am 26.3 N 8 10 1023.3 - 0.0 - - - - - - -
26/09:30am 24.0 N 9 13 1023.6 - 0.0 - - - - - - -
26/09:00am 22.7 N 9 13 1023.8 - 0.0 Fine Partly cloudy 40 - - - -
26/08:30am 20.0 N 11 15 1023.8 - 0.0 - - - - - - -
26/08:00am 17.9 N 10 12 1024.0 - 0.0 - - - - - - -
26/07:30am 15.8 N 10 15 1024.2 - 0.0 - - - - - - -
26/07:00am 13.3 N 9 12 1024.0 - 0.0 - - - - - - -
26/06:30am 11.1 N 10 15 1023.9 - 0.0 - - - - - - -
26/06:00am 10.3 N 9 13 1023.6 - 0.0 - - - - - - -
26/05:30am 10.2 N 9 11 1023.4 - 0.0 - - - - - - -
26/05:00am 10.5 N 10 13 1023.0 - 0.0 - - - - - - -
26/04:30am 10.7 N 10 15 1022.9 - 0.0 - - - - - - -
26/04:00am 11.0 N 10 14 1022.9 - 0.0 - - - - - - -
26/03:30am 10.8 N 10 13 1023.1 - 0.0 - - - - - - -
26/03:00am 10.8 N 9 13 1023.4 - 0.0 - - - - - - -
26/02:30am 10.4 N 9 11 1023.6 - 0.0 - - - - - - -
26/02:00am 9.8 N 9 11 1023.6 - 0.0 - - - - - - -
26/01:30am 9.8 N 7 9 1024.0 - 0.0 - - - - - - -
26/01:00am 10.3 N 7 10 1024.3 - 0.0 - - - - - - -
26/12:30am 10.9 N 8 10 1024.6 - 0.0 - - - - - - -
26/12:00am 11.2 N 8 10 1024.6 - 0.0 - - - - - - -
 
Date/Time
WST
Temp

°C
Wind Pressure Rain
since 9am
mm
Weather Cloud Vis
km
Sea
Height
m
Swell
Dir
 
Speed
knots
Gust
knots
hPa Trend Height
m
Period
s
Dir
25/11:30pm 13.3 NW 5 10 1024.7 - 0.0 - - - - - - -
25/11:00pm 12.8 NNE 8 11 1024.5 - 0.0 - - - - - - -
25/10:30pm 12.6 NNE 8 10 1024.6 - 0.0 - - - - - - -
25/10:00pm 13.3 NNE 8 10 1024.8 - 0.0 - - - - - - -
25/09:30pm 14.4 NE 8 11 1025.0 - 0.0 - - - - - - -
25/09:00pm 15.1 NE 8 10 1025.2 - 0.0 - - - - - - -
25/08:30pm 15.4 NNE 8 10 1025.2 - 0.0 - - - - - - -
25/08:00pm 16.0 NE 8 10 1025.4 - 0.0 - - - - - - -
25/07:30pm 16.3 NE 8 10 1025.4 - 0.0 - - - - - - -
25/07:00pm 16.6 NE 7 10 1025.4 - 0.0 - - - - - - -
25/06:30pm 17.3 ENE 8 10 1025.4 - 0.0 - - - - - - -
25/06:00pm 17.3 ENE 7 10 1025.3 - 0.0 - - - - - - -
25/05:30pm 18.2 E 8 11 1025.2 - 0.0 - - - - - - -

Other Formats:

Comma delimited format used in spreadsheet applications
http://www.bom.gov.au/fwo/IDW60701/IDW60701.94647.axf

JavaScript Object Notation format (JSON) in row-major order
http://www.bom.gov.au/fwo/IDW60701/IDW60701.94647.json